sensor_id;sensor_type;location;lat;lon;timestamp;temperature;humidity
76750;DHT22;66447;35.844;14.468;2024-01-07T08:31:26;14.56;118.99
76750;DHT22;66447;35.844;14.468;2024-01-07T08:46:30;14.85;118.99
76750;DHT22;66447;35.844;14.468;2024-01-07T09:01:31;15.66;118.99
76750;DHT22;66447;35.844;14.468;2024-01-07T09:16:32;16.05;118.99
76750;DHT22;66447;35.844;14.468;2024-01-07T09:31:33;13.88;118.99
76750;DHT22;66447;35.844;14.468;2024-01-07T09:46:34;14.74;118.99
76750;DHT22;66447;35.844;14.468;2024-01-07T10:01:38;17.44;118.99
76750;DHT22;66447;35.844;14.468;2024-01-07T10:16:40;14.87;118.99
76750;DHT22;66447;35.844;14.468;2024-01-07T10:31:40;16.75;110.10
76750;DHT22;66447;35.844;14.468;2024-01-07T10:46:42;16.05;78.53
76750;DHT22;66447;35.844;14.468;2024-01-07T11:01:44;15.37;118.99
76750;DHT22;66447;35.844;14.468;2024-01-07T11:16:45;15.27;46.94
76750;DHT22;66447;35.844;14.468;2024-01-07T11:31:47;14.38;118.99
76750;DHT22;66447;35.844;14.468;2024-01-07T11:46:47;13.20;118.99
76750;DHT22;66447;35.844;14.468;2024-01-07T12:01:48;13.77;118.99
76750;DHT22;66447;35.844;14.468;2024-01-07T12:16:49;13.82;118.99
76750;DHT22;66447;35.844;14.468;2024-01-07T12:31:51;14.01;118.99
76750;DHT22;66447;35.844;14.468;2024-01-07T12:46:52;14.94;118.99
76750;DHT22;66447;35.844;14.468;2024-01-07T13:01:53;14.77;118.99
76750;DHT22;66447;35.844;14.468;2024-01-07T13:16:54;14.33;118.99
76750;DHT22;66447;35.844;14.468;2024-01-07T13:31:54;15.44;118.99
76750;DHT22;66447;35.844;14.468;2024-01-07T13:46:55;15.55;-6.00
76750;DHT22;66447;35.844;14.468;2024-01-07T14:01:56;14.66;-0.32
76750;DHT22;66447;35.844;14.468;2024-01-07T14:17:00;14.81;118.99
76750;DHT22;66447;35.844;14.468;2024-01-07T14:32:01;14.63;95.47
76750;DHT22;66447;35.844;14.468;2024-01-07T14:47:03;14.28;-6.00
76750;DHT22;66447;35.844;14.468;2024-01-07T15:02:04;14.50;-6.00
76750;DHT22;66447;35.844;14.468;2024-01-07T15:17:05;13.69;118.99
76750;DHT22;66447;35.844;14.468;2024-01-07T15:32:06;13.71;-6.00
76750;DHT22;66447;35.844;14.468;2024-01-07T15:47:07;13.84;-6.00
76750;DHT22;66447;35.844;14.468;2024-01-07T16:02:09;13.61;-6.00
76750;DHT22;66447;35.844;14.468;2024-01-07T16:17:10;13.75;-6.00
76750;DHT22;66447;35.844;14.468;2024-01-07T16:32:11;13.73;-6.00
76750;DHT22;66447;35.844;14.468;2024-01-07T16:47:12;13.82;-6.00
76750;DHT22;66447;35.844;14.468;2024-01-07T17:02:14;13.59;-6.00
76750;DHT22;66447;35.844;14.468;2024-01-07T17:17:15;13.88;-6.00
76750;DHT22;66447;35.844;14.468;2024-01-07T17:32:15;13.48;-6.00
76750;DHT22;66447;35.844;14.468;2024-01-07T17:47:18;13.79;-6.00
76750;DHT22;66447;35.844;14.468;2024-01-07T18:02:19;13.62;-6.00
76750;DHT22;66447;35.844;14.468;2024-01-07T18:17:20;14.33;-6.00
76750;DHT22;66447;35.844;14.468;2024-01-07T18:32:21;12.35;118.99
76750;DHT22;66447;35.844;14.468;2024-01-07T18:47:22;13.30;118.99
76750;DHT22;66447;35.844;14.468;2024-01-07T19:02:23;13.40;-6.00
76750;DHT22;66447;35.844;14.468;2024-01-07T19:17:25;13.54;-6.00
76750;DHT22;66447;35.844;14.468;2024-01-07T19:32:27;13.40;-6.00
76750;DHT22;66447;35.844;14.468;2024-01-07T19:47:28;13.50;-6.00
76750;DHT22;66447;35.844;14.468;2024-01-07T20:02:29;13.50;-6.00
76750;DHT22;66447;35.844;14.468;2024-01-07T20:17:30;13.61;-6.00
76750;DHT22;66447;35.844;14.468;2024-01-07T20:32:31;13.71;-6.00
76750;DHT22;66447;35.844;14.468;2024-01-07T20:47:35;13.94;-6.00
76750;DHT22;66447;35.844;14.468;2024-01-07T21:02:36;14.10;-6.00
76750;DHT22;66447;35.844;14.468;2024-01-07T21:17:39;13.85;-6.00
76750;DHT22;66447;35.844;14.468;2024-01-07T21:32:39;13.06;-6.00
76750;DHT22;66447;35.844;14.468;2024-01-07T21:47:41;12.66;-6.00
76750;DHT22;66447;35.844;14.468;2024-01-07T22:02:43;13.18;-6.00
76750;DHT22;66447;35.844;14.468;2024-01-07T22:17:44;13.19;-4.28
76750;DHT22;66447;35.844;14.468;2024-01-07T22:32:45;13.60;-6.00
